Time;durP1;ratioP1;P1;durP2;ratioP2;P2;SDS_P1;SDS_P2;PMS_P1;PMS_P2;Temp;Humidity;BMP_temperature;BMP_pressure;BME280_temperature;BME280_humidity;BME280_pressure;Samples;Min_cycle;Max_cycle;Signal;HPM_P1;HPM_P2
2022/05/26 00:00:32;;;;;;;17.73;5.25;;;;;;;13.45;100.00;101579.03;5141663;27;20031;-63
2022/05/26 00:02:57;;;;;;;16.15;4.85;;;;;;;13.42;100.00;101571.06;5144794;27;20019;-63
2022/05/26 00:05:24;;;;;;;16.70;5.00;;;;;;;13.41;100.00;101574.59;5145784;27;20023;-62
2022/05/26 00:07:49;;;;;;;16.13;5.07;;;;;;;13.40;100.00;101572.84;5143398;27;20422;-63
2022/05/26 00:10:14;;;;;;;15.43;5.10;;;;;;;13.38;100.00;101572.84;5146226;27;20072;-61
2022/05/26 00:12:40;;;;;;;17.60;5.05;;;;;;;13.37;100.00;101578.16;5144533;27;20027;-60
2022/05/26 00:15:07;;;;;;;17.48;5.43;;;;;;;13.38;100.00;101572.84;5145717;27;20476;-61
2022/05/26 00:17:32;;;;;;;17.40;5.55;;;;;;;13.41;100.00;101574.59;5144444;27;20079;-62
2022/05/26 00:19:58;;;;;;;16.80;5.53;;;;;;;13.39;100.00;101576.38;5142419;27;20031;-61
2022/05/26 00:22:24;;;;;;;18.20;5.55;;;;;;;13.37;100.00;101586.13;5145146;27;20049;-62
2022/05/26 00:24:50;;;;;;;18.27;5.60;;;;;;;13.38;100.00;101578.16;5144027;27;20501;-63
2022/05/26 00:27:15;;;;;;;17.83;5.55;;;;;;;13.39;100.00;101587.88;5142717;27;20047;-63
2022/05/26 00:29:40;;;;;;;18.10;5.47;;;;;;;13.38;100.00;101599.41;5145168;27;20023;-61
2022/05/26 00:32:07;;;;;;;20.67;5.88;;;;;;;13.41;100.00;101593.19;5141262;27;20168;-62
2022/05/26 00:34:32;;;;;;;16.88;5.80;;;;;;;13.38;100.00;101595.84;5141815;27;20079;-63
2022/05/26 00:36:58;;;;;;;19.80;5.88;;;;;;;13.38;100.00;101601.16;5143554;27;20465;-61
2022/05/26 00:39:25;;;;;;;18.95;6.50;;;;;;;13.38;100.00;101591.44;5140034;27;20022;-63
2022/05/26 00:41:56;;;;;;;18.58;6.00;;;;;;;13.39;100.00;101594.97;5138093;27;20023;-63
2022/05/26 00:44:22;;;;;;;20.00;6.28;;;;;;;13.39;100.00;101603.81;5141481;27;20080;-63
2022/05/26 00:46:59;;;;;;;19.70;5.90;;;;;;;13.41;100.00;101598.50;5138029;27;20479;-63
2022/05/26 00:49:40;;;;;;;19.30;6.03;;;;;;;13.39;100.00;101597.63;5140252;27;20034;-63
2022/05/26 00:52:09;;;;;;;20.58;7.00;;;;;;;13.39;100.00;101595.84;5141243;27;20031;-61
2022/05/26 00:54:34;;;;;;;20.98;6.20;;;;;;;13.36;100.00;101598.47;5139871;27;20374;-61
2022/05/26 00:57:05;;;;;;;19.80;6.47;;;;;;;13.39;100.00;101600.28;5137610;27;20079;-60
2022/05/26 00:59:40;;;;;;;20.20;6.80;;;;;;;13.39;100.00;101605.59;5141269;27;20018;-60
2022/05/26 01:02:06;;;;;;;19.77;6.47;;;;;;;13.37;100.00;101592.31;5138481;27;20019;-60
2022/05/26 01:04:40;;;;;;;20.38;6.72;;;;;;;13.38;100.00;101590.53;5138473;27;20714;-61
2022/05/26 01:07:13;;;;;;;21.02;6.78;;;;;;;13.36;100.00;101595.84;5140577;27;20027;-60
2022/05/26 01:09:38;;;;;;;20.58;6.50;;;;;;;13.35;100.00;101599.38;5137441;27;20031;-61
2022/05/26 01:12:04;;;;;;;21.40;7.20;;;;;;;13.36;100.00;101597.59;5138957;27;20030;-61
2022/05/26 01:14:33;;;;;;;20.90;7.32;;;;;;;13.37;100.00;101596.75;5141834;27;20055;-61
2022/05/26 01:17:15;;;;;;;21.25;7.47;;;;;;;13.39;100.00;101600.28;5137959;27;20027;-61
2022/05/26 01:19:53;;;;;;;20.27;7.38;;;;;;;13.38;100.00;101601.16;5141700;27;20023;-60
2022/05/26 01:22:43;;;;;;;20.90;7.40;;;;;;;13.38;100.00;101601.16;5140104;27;20034;-60
2022/05/26 01:25:45;;;;;;;21.80;7.53;;;;;;;13.37;100.00;101602.06;5139257;27;20079;-63
2022/05/26 01:28:54;;;;;;;20.55;7.50;;;;;;;13.38;100.00;101611.78;5139802;27;20034;-64
2022/05/26 01:31:43;;;;;;;23.70;8.20;;;;;;;13.42;100.00;101606.47;5141510;27;20038;-64
2022/05/26 01:34:17;;;;;;;24.13;8.13;;;;;;;13.41;100.00;101603.81;5138894;27;20101;-63
2022/05/26 01:36:54;;;;;;;23.00;8.32;;;;;;;13.40;100.00;101610.03;5138662;27;20027;-63
2022/05/26 01:39:31;;;;;;;22.90;8.60;;;;;;;13.43;100.00;101621.53;5140909;27;20026;-64
2022/05/26 01:42:17;;;;;;;22.65;9.15;;;;;;;13.40;100.00;101604.72;5139618;27;20102;-64
2022/05/26 01:45:14;;;;;;;22.75;8.90;;;;;;;13.39;100.00;101610.91;5139901;27;20382;-63
2022/05/26 01:47:58;;;;;;;24.00;8.73;;;;;;;13.42;100.00;101621.53;5140684;27;20034;-63
2022/05/26 01:50:32;;;;;;;24.33;9.30;;;;;;;13.38;100.00;101620.66;5121720;27;20091;-64
2022/05/26 01:53:00;;;;;;;23.45;9.48;;;;;;;13.39;100.00;101618.88;5137955;27;20098;-63
2022/05/26 01:55:35;;;;;;;23.25;9.13;;;;;;;13.38;100.00;101630.34;5139238;27;20490;-62
2022/05/26 01:58:13;;;;;;;23.70;9.30;;;;;;;13.41;100.00;101633.03;5137764;27;20019;-63
2022/05/26 02:00:39;;;;;;;23.83;9.77;;;;;;;13.38;100.00;101625.94;5132432;27;20015;-62
2022/05/26 02:03:09;;;;;;;23.95;9.85;;;;;;;13.37;100.00;101626.81;5138876;27;20410;-62
2022/05/26 02:05:41;;;;;;;23.75;10.25;;;;;;;13.37;100.00;101639.22;5143343;27;20023;-63
2022/05/26 02:08:14;;;;;;;26.17;10.90;;;;;;;13.41;100.00;101638.34;5133447;27;20027;-63
2022/05/26 02:10:46;;;;;;;26.15;11.13;;;;;;;13.45;100.00;101641.91;5136687;27;20027;-63
2022/05/26 02:13:20;;;;;;;27.00;11.38;;;;;;;13.42;100.00;101653.41;5135786;27;20359;-62
2022/05/26 02:15:50;;;;;;;27.02;11.63;;;;;;;13.40;100.00;101647.19;5137516;27;20354;-63
2022/05/26 02:18:26;;;;;;;25.52;11.02;;;;;;;13.37;100.00;101648.06;5137201;27;20029;-62
2022/05/26 02:21:03;;;;;;;25.23;11.55;;;;;;;13.36;100.00;101648.94;5139742;27;20065;-62
2022/05/26 02:23:36;;;;;;;25.10;11.30;;;;;;;13.35;100.00;101655.16;5135407;27;20490;-63
2022/05/26 02:26:03;;;;;;;25.52;11.45;;;;;;;13.34;100.00;101652.44;5139520;27;20026;-63
2022/05/26 02:29:51;;;;;;;26.40;11.60;;;;;;;13.36;100.00;101648.06;5142180;27;20057;-63
2022/05/26 02:31:19;;;;;;;25.55;11.68;;;;;;;13.38;100.00;101651.59;5138963;27;20045;-63
2022/05/26 02:33:45;;;;;;;26.48;11.77;;;;;;;13.36;100.00;101648.94;5141213;27;20023;-61
2022/05/26 02:36:11;;;;;;;27.00;12.00;;;;;;;13.36;100.00;101651.59;5135657;27;20083;-62
2022/05/26 02:38:37;;;;;;;26.05;11.35;;;;;;;13.34;100.00;101655.06;5139678;27;20046;-63
2022/05/26 02:41:02;;;;;;;27.98;11.93;;;;;;;13.34;100.00;101663.03;5139967;27;20030;-63
2022/05/26 02:43:31;;;;;;;25.58;11.63;;;;;;;13.29;100.00;101665.69;5118863;27;20079;-62
2022/05/26 02:46:11;;;;;;;27.25;12.55;;;;;;;13.29;100.00;101646.22;5139603;27;20034;-63
2022/05/26 02:48:54;;;;;;;28.45;12.30;;;;;;;13.24;100.00;101659.47;5134336;27;20027;-63
2022/05/26 02:52:02;;;;;;;27.73;12.55;;;;;;;13.23;100.00;101661.22;5134540;27;20033;-62
2022/05/26 02:54:49;;;;;;;26.75;11.70;;;;;;;13.25;100.00;101663.88;5057416;28;20139;-62
2022/05/26 02:57:19;;;;;;;27.67;12.57;;;;;;;13.27;100.00;101663.91;5049148;28;20480;-63
2022/05/26 03:00:06;;;;;;;26.77;12.55;;;;;;;13.23;100.00;101663.00;5052350;28;20057;-64
2022/05/26 03:02:57;;;;;;;26.73;11.85;;;;;;;13.19;100.00;101670.06;5052865;28;20043;-63
2022/05/26 03:05:27;;;;;;;27.30;12.27;;;;;;;13.19;100.00;101672.72;5053439;28;20120;-63
2022/05/26 03:07:56;;;;;;;26.80;12.35;;;;;;;13.21;100.00;101670.94;5053081;28;20037;-64
2022/05/26 03:10:25;;;;;;;27.60;12.73;;;;;;;13.21;100.00;101672.72;5055539;28;20444;-63
2022/05/26 03:12:53;;;;;;;27.73;13.52;;;;;;;13.15;100.00;101670.91;5050780;28;20419;-63
2022/05/26 03:15:18;;;;;;;29.17;13.10;;;;;;;13.13;100.00;101671.78;5052661;28;20074;-63
2022/05/26 03:17:44;;;;;;;30.27;13.43;;;;;;;13.15;100.00;101670.91;5050637;28;20120;-64
2022/05/26 03:20:10;;;;;;;28.15;12.70;;;;;;;13.13;100.00;101666.47;5054430;28;20021;-63
2022/05/26 03:22:35;;;;;;;30.58;13.45;;;;;;;13.10;100.00;101680.59;5052642;28;20031;-63
2022/05/26 03:25:00;;;;;;;30.08;12.75;;;;;;;13.05;100.00;101671.72;5053406;28;20055;-64
2022/05/26 03:27:26;;;;;;;28.85;12.85;;;;;;;13.03;100.00;101677.03;5049646;28;20044;-64
2022/05/26 03:29:51;;;;;;;28.85;12.75;;;;;;;13.04;100.00;101677.91;5051637;28;20072;-61
2022/05/26 03:32:16;;;;;;;30.67;12.90;;;;;;;13.07;100.00;101677.94;5136933;27;20059;-61
2022/05/26 03:42:55;;;;;;;30.25;12.73;;;;;;;12.99;100.00;101688.50;5135952;27;20070;-62
2022/05/26 03:45:23;;;;;;;27.85;11.75;;;;;;;13.03;100.00;101702.66;5136401;27;20054;-60
2022/05/26 03:47:49;;;;;;;28.20;12.10;;;;;;;13.00;100.00;101692.91;5139267;27;20046;-61
2022/05/26 03:50:15;;;;;;;28.95;12.23;;;;;;;12.98;100.00;101691.13;5137814;27;20446;-61
2022/05/26 03:52:41;;;;;;;27.90;11.52;;;;;;;12.96;100.00;101696.44;5140464;27;20131;-60
2022/05/26 03:55:07;;;;;;;30.58;12.30;;;;;;;12.93;100.00;101693.75;5138862;27;20029;-60
2022/05/26 03:57:32;;;;;;;30.33;12.23;;;;;;;12.88;100.00;101712.28;5135599;27;20079;-63
2022/05/26 03:59:58;;;;;;;28.88;11.57;;;;;;;12.83;100.00;101706.06;5136567;27;20099;-64
2022/05/26 04:02:24;;;;;;;31.77;11.60;;;;;;;12.80;100.00;101713.09;5139682;27;20042;-63
2022/05/26 04:04:50;;;;;;;26.95;11.32;;;;;;;12.73;100.00;101704.19;5139627;27;20023;-64
2022/05/26 04:07:16;;;;;;;30.42;11.63;;;;;;;12.70;100.00;101713.00;5142948;27;20030;-64
2022/05/26 04:09:41;;;;;;;32.28;12.05;;;;;;;12.66;100.00;101715.63;5141072;27;20055;-64
2022/05/26 04:12:08;;;;;;;31.85;12.02;;;;;;;12.67;100.00;101714.75;5123483;27;20393;-62
2022/05/26 04:14:34;;;;;;;31.52;11.55;;;;;;;12.70;100.00;101720.09;5140759;27;20114;-64
2022/05/26 04:17:00;;;;;;;29.52;11.57;;;;;;;12.70;100.00;101717.44;5139878;27;20103;-64
2022/05/26 04:19:25;;;;;;;29.92;11.10;;;;;;;12.69;100.00;101715.66;5123066;27;20041;-64
2022/05/26 04:24:35;;;;;;;28.88;11.07;;;;;;;12.73;100.00;101728.06;5142734;27;20406;-64
2022/05/26 04:27:00;;;;;;;29.52;10.95;;;;;;;12.77;100.00;101728.97;5142411;27;20023;-64
2022/05/26 04:29:27;;;;;;;29.48;11.07;;;;;;;12.78;100.00;101731.63;5144787;27;20049;-62
2022/05/26 04:31:53;;;;;;;29.50;10.63;;;;;;;12.79;100.00;101736.09;5123733;27;20481;-63
2022/05/26 04:34:19;;;;;;;29.52;10.57;;;;;;;12.81;100.00;101738.75;5140084;27;20053;-63
2022/05/26 04:36:46;;;;;;;32.03;11.35;;;;;;;12.82;100.00;101736.09;5139539;27;20461;-63
2022/05/26 04:39:12;;;;;;;29.42;10.20;;;;;;;12.82;100.00;101736.09;5141037;27;20023;-62
2022/05/26 04:41:37;;;;;;;29.15;11.25;;;;;;;12.81;100.00;101734.31;5142956;27;20023;-63
2022/05/26 04:44:02;;;;;;;31.65;10.82;;;;;;;12.83;100.00;101745.84;5141086;27;20461;-64
2022/05/26 04:46:28;;;;;;;30.10;10.82;;;;;;;12.83;100.00;101745.84;5142020;27;20029;-63
2022/05/26 04:48:53;;;;;;;28.88;10.32;;;;;;;12.82;100.00;101749.38;5137570;27;20107;-63
2022/05/26 04:51:19;;;;;;;27.92;10.50;;;;;;;12.80;100.00;101753.78;5142353;27;20038;-64
2022/05/26 04:53:45;;;;;;;30.95;10.45;;;;;;;12.84;100.00;101755.59;5142390;27;20015;-64
2022/05/26 04:56:11;;;;;;;29.67;10.20;;;;;;;12.84;100.00;101752.03;5140949;27;20399;-60
2022/05/26 04:58:37;;;;;;;29.33;10.07;;;;;;;12.88;100.00;101757.38;5141784;27;20030;-61
2022/05/26 05:01:13;;;;;;;32.90;10.52;;;;;;;12.91;100.00;101762.72;5140749;27;20015;-61
2022/05/26 05:03:39;;;;;;;28.58;9.82;;;;;;;12.96;100.00;101768.09;5123917;27;20027;-60
2022/05/26 05:06:04;;;;;;;28.63;10.60;;;;;;;12.98;100.00;101776.94;5140498;27;20022;-61
2022/05/26 05:08:29;;;;;;;27.63;9.63;;;;;;;13.02;100.00;101777.88;5137511;27;20083;-60
2022/05/26 05:10:54;;;;;;;29.80;10.27;;;;;;;13.07;100.00;101784.09;5139882;27;20080;-61
2022/05/26 05:13:20;;;;;;;28.85;10.27;;;;;;;13.11;100.00;101780.59;5141340;27;20020;-61
2022/05/26 05:15:53;;;;;;;29.98;9.90;;;;;;;13.18;100.00;101789.53;5137559;27;20099;-62
2022/05/26 05:18:19;;;;;;;29.63;10.30;;;;;;;13.15;100.00;101779.75;5138823;27;20023;-61
2022/05/26 05:20:45;;;;;;;28.95;10.52;;;;;;;13.17;100.00;101785.97;5140951;27;20389;-60
2022/05/26 05:23:14;;;;;;;30.08;10.45;;;;;;;13.21;100.00;101782.47;5143178;27;20069;-61
2022/05/26 05:25:46;;;;;;;26.25;9.55;;;;;;;13.23;100.00;101786.00;5139460;27;20079;-61
2022/05/26 05:28:21;;;;;;;29.38;10.60;;;;;;;13.30;100.00;101791.38;5142602;27;20050;-62
2022/05/26 05:30:49;;;;;;;29.67;10.65;;;;;;;13.36;100.00;101802.97;5142371;27;20481;-61
2022/05/26 05:33:19;;;;;;;27.35;9.93;;;;;;;13.42;100.00;101805.66;5139663;27;20072;-61
2022/05/26 05:35:50;;;;;;;29.95;10.40;;;;;;;13.43;100.00;101809.22;5143077;27;20021;-60
2022/05/26 05:38:17;;;;;;;31.67;10.55;;;;;;;13.42;100.00;101807.44;5137763;27;20031;-61
2022/05/26 05:40:42;;;;;;;31.02;10.35;;;;;;;13.42;100.00;101804.78;5139657;27;20054;-62
2022/05/26 05:43:08;;;;;;;28.00;10.35;;;;;;;13.49;100.00;101811.91;5140797;27;20044;-61
2022/05/26 05:45:34;;;;;;;26.60;9.75;;;;;;;13.57;100.00;101798.69;5136116;27;20031;-60
2022/05/26 05:47:59;;;;;;;30.75;10.07;;;;;;;13.70;100.00;101808.53;5139976;27;20109;-61
2022/05/26 05:50:25;;;;;;;27.42;10.23;;;;;;;13.76;100.00;101808.56;5140563;27;20041;-61
2022/05/26 05:52:51;;;;;;;31.25;10.73;;;;;;;13.82;100.00;101823.69;5139286;27;20019;-60
2022/05/26 05:55:16;;;;;;;30.00;10.57;;;;;;;13.82;100.00;101818.34;5143176;27;20026;-61
2022/05/26 05:57:41;;;;;;;30.05;10.07;;;;;;;13.87;100.00;101819.25;5140000;27;20037;-61
2022/05/26 06:00:07;;;;;;;28.08;10.50;;;;;;;13.91;100.00;101818.41;5140675;27;20118;-68
2022/05/26 06:02:33;;;;;;;28.17;10.55;;;;;;;13.91;100.00;101834.34;5119487;27;20047;-68
2022/05/26 06:04:58;;;;;;;27.70;10.30;;;;;;;13.94;100.00;101822.84;5141806;27;20052;-67
2022/05/26 06:07:24;;;;;;;29.45;10.35;;;;;;;13.97;100.00;101825.53;5140314;27;20022;-67
2022/05/26 06:09:51;;;;;;;29.10;10.40;;;;;;;14.02;100.00;101830.88;5140880;27;20023;-68
2022/05/26 06:12:17;;;;;;;27.88;10.20;;;;;;;14.15;100.00;101838.03;5139530;27;20031;-68
2022/05/26 06:14:43;;;;;;;29.08;11.00;;;;;;;14.12;100.00;101843.31;5140492;27;20497;-68
2022/05/26 06:17:10;;;;;;;29.58;10.68;;;;;;;14.12;100.00;101848.66;5138242;27;20027;-72
2022/05/26 06:19:38;;;;;;;26.98;10.98;;;;;;;14.18;100.00;101853.13;5139098;27;20135;-65
2022/05/26 06:22:16;;;;;;;29.10;11.48;;;;;;;14.17;100.00;101846.91;5139514;27;20087;-66
2022/05/26 06:24:42;;;;;;;29.52;11.60;;;;;;;14.22;100.00;101845.16;5131471;27;20047;-71
2022/05/26 06:29:55;;;;;;;28.42;12.20;;;;;;;14.03;100.00;101853.91;5139815;27;20123;-69
2022/05/26 06:37:52;;;;;;;30.25;14.25;;;;;;;14.41;100.00;101867.41;5141490;27;20166;-66
2022/05/26 06:40:18;;;;;;;30.90;14.32;;;;;;;14.52;100.00;101869.22;5141190;27;20068;-68
2022/05/26 06:42:45;;;;;;;30.40;14.45;;;;;;;14.43;100.00;101875.38;5136810;27;20465;-63
2022/05/26 06:45:11;;;;;;;28.77;13.57;;;;;;;14.45;100.00;101869.19;5137081;27;20022;-65
2022/05/26 06:47:37;;;;;;;31.60;14.30;;;;;;;14.52;100.00;101878.13;5136962;27;20047;-63
2022/05/26 06:50:02;;;;;;;28.33;12.52;;;;;;;14.57;100.00;101873.69;5140073;27;20063;-61
2022/05/26 06:52:28;;;;;;;27.60;13.95;;;;;;;14.64;100.00;101879.97;5139423;27;20441;-63
2022/05/26 06:54:54;;;;;;;28.05;12.65;;;;;;;14.77;100.00;101875.59;5137840;27;20076;-63
2022/05/26 06:57:19;;;;;;;28.88;14.05;;;;;;;14.77;100.00;101879.13;5136469;27;20023;-62
2022/05/26 06:59:45;;;;;;;28.45;13.57;;;;;;;14.72;100.00;101879.97;5139650;27;20050;-63
2022/05/26 07:02:12;;;;;;;28.67;13.73;;;;;;;14.71;100.00;101875.53;5137337;27;20023;-64
2022/05/26 07:04:39;;;;;;;26.45;12.82;;;;;;;14.85;100.00;101884.47;5137730;27;20023;-65
2022/05/26 07:07:05;;;;;;;26.85;13.13;;;;;;;14.93;100.00;101881.84;5137285;27;20114;-64
2022/05/26 07:09:31;;;;;;;27.45;13.43;;;;;;;15.13;100.00;101889.84;5139182;27;20106;-64
2022/05/26 07:11:56;;;;;;;26.90;13.10;;;;;;;15.31;100.00;101889.91;5138363;27;20109;-62
2022/05/26 07:14:22;;;;;;;27.13;12.88;;;;;;;15.30;100.00;101889.91;5139480;27;20506;-64
2022/05/26 07:16:47;;;;;;;26.00;13.15;;;;;;;15.23;100.00;101904.09;5135032;27;20419;-64
2022/05/26 07:19:14;;;;;;;26.17;12.80;;;;;;;15.22;100.00;101903.22;5140748;27;20046;-64
2022/05/26 07:21:40;;;;;;;25.65;12.10;;;;;;;15.33;100.00;101906.78;5134842;27;20030;-63
2022/05/26 07:24:06;;;;;;;25.65;11.93;;;;;;;15.29;100.00;101912.06;5139716;27;20023;-64
2022/05/26 07:26:32;;;;;;;28.38;12.63;;;;;;;15.45;100.00;101902.31;5138123;27;20381;-61
2022/05/26 07:28:58;;;;;;;28.10;11.77;;;;;;;15.74;100.00;101909.44;5134226;27;20035;-62
2022/05/26 07:31:24;;;;;;;25.25;12.35;;;;;;;15.68;100.00;101903.25;5137659;27;20030;-61
2022/05/26 07:33:49;;;;;;;25.67;12.65;;;;;;;15.47;100.00;101916.56;5138131;27;20377;-61
2022/05/26 07:41:44;;;;;;;25.58;12.77;;;;;;;15.84;100.00;101920.16;5144691;27;20054;-64
2022/05/26 07:44:10;;;;;;;26.52;12.52;;;;;;;16.10;100.00;101923.69;5142686;27;20065;-61
2022/05/26 07:46:36;;;;;;;27.02;12.50;;;;;;;15.88;100.00;101934.38;5142530;27;20031;-60
2022/05/26 07:49:02;;;;;;;26.67;12.32;;;;;;;15.83;100.00;101925.50;5123298;27;20030;-61
2022/05/26 07:51:27;;;;;;;24.65;11.85;;;;;;;15.77;100.00;101933.44;5141562;27;20027;-62
2022/05/26 07:53:53;;;;;;;25.50;12.82;;;;;;;15.89;100.00;101920.16;5142044;27;20019;-62
2022/05/26 07:56:20;;;;;;;27.83;13.68;;;;;;;15.77;100.00;101921.03;5142872;27;20061;-61
2022/05/26 07:58:47;;;;;;;26.33;13.05;;;;;;;15.63;100.00;101928.13;5142318;27;20023;-62
2022/05/26 08:01:13;;;;;;;25.95;13.25;;;;;;;15.58;100.00;101930.78;5137578;27;20455;-62
2022/05/26 08:03:38;;;;;;;26.98;13.57;;;;;;;15.63;100.00;101923.66;5140532;27;20023;-65
2022/05/26 08:06:04;;;;;;;24.95;12.60;;;;;;;15.60;100.00;101939.66;5145180;27;20023;-62
2022/05/26 08:08:31;;;;;;;24.33;12.38;;;;;;;15.58;100.00;101938.78;5141221;27;20019;-63
2022/05/26 08:10:56;;;;;;;25.95;13.13;;;;;;;15.90;100.00;101935.28;5145225;27;20091;-63
2022/05/26 08:13:22;;;;;;;26.45;13.38;;;;;;;16.16;100.00;101931.66;5140299;27;20036;-68
2022/05/26 08:15:49;;;;;;;28.45;13.55;;;;;;;16.47;100.00;101932.50;5141052;27;20129;-64
2022/05/26 08:18:15;;;;;;;24.67;12.55;;;;;;;16.67;100.00;101935.13;5139616;27;20019;-64
2022/05/26 08:20:41;;;;;;;25.20;12.23;;;;;;;16.58;100.00;101931.56;5143366;27;20029;-65
2022/05/26 08:23:07;;;;;;;24.38;11.02;;;;;;;16.51;100.00;101941.38;5143100;27;20470;-64
2022/05/26 08:25:32;;;;;;;24.70;11.60;;;;;;;16.34;100.00;101931.66;5142312;27;20054;-63
2022/05/26 08:27:57;;;;;;;23.10;11.13;;;;;;;16.48;100.00;101928.03;5138406;27;20132;-64
2022/05/26 08:30:23;;;;;;;23.20;11.00;;;;;;;16.88;100.00;101934.16;5138072;27;20027;-64
2022/05/26 08:32:52;;;;;;;22.27;10.15;;;;;;;16.77;100.00;101945.75;5141485;27;20034;-63
2022/05/26 08:35:17;;;;;;;22.70;10.20;;;;;;;16.74;100.00;101939.50;5142209;27;20027;-64
2022/05/26 08:37:43;;;;;;;23.05;10.40;;;;;;;16.92;100.00;101948.41;5143394;27;20019;-65
2022/05/26 08:40:22;;;;;;;23.02;10.65;;;;;;;17.05;100.00;101951.88;5142374;27;20083;-63
2022/05/26 08:42:47;;;;;;;24.25;11.43;;;;;;;16.67;100.00;101944.88;5143428;27;20534;-64
2022/05/26 08:45:13;;;;;;;24.23;10.10;;;;;;;16.78;100.00;101964.44;5140767;27;20024;-63
2022/05/26 08:47:47;;;;;;;22.88;10.43;;;;;;;16.65;100.00;101952.03;5140565;27;20027;-64
2022/05/26 08:50:21;;;;;;;23.27;10.38;;;;;;;17.04;100.00;101955.47;5142160;27;20354;-66
2022/05/26 08:52:55;;;;;;;22.95;11.05;;;;;;;17.57;100.00;101956.88;5116907;27;20031;-65
2022/05/26 08:55:29;;;;;;;22.10;9.90;;;;;;;17.45;100.00;101972.16;5142959;27;20115;-64
2022/05/26 08:58:13;;;;;;;22.20;10.70;;;;;;;17.07;100.00;101956.31;5136022;27;20039;-65
2022/05/26 09:00:40;;;;;;;23.27;10.90;;;;;;;16.77;100.00;101967.09;5140442;27;20027;-67
2022/05/26 09:03:24;;;;;;;22.85;11.68;;;;;;;16.66;100.00;101960.03;5138985;27;20027;-64
2022/05/26 09:06:00;;;;;;;24.60;13.07;;;;;;;16.50;100.00;101963.63;5141987;27;20031;-65
2022/05/26 09:14:06;;;;;;;24.43;12.30;;;;;;;18.08;100.00;101967.22;5050548;28;20071;-61
2022/05/26 09:16:40;;;;;;;24.45;12.57;;;;;;;17.68;100.00;101967.53;5058441;28;20123;-61
2022/05/26 09:19:18;;;;;;;23.27;12.10;;;;;;;17.94;100.00;101963.78;5052912;28;20031;-64
2022/05/26 09:21:46;;;;;;;24.35;12.80;;;;;;;18.02;100.00;101971.75;5050955;28;20592;-62
2022/05/26 09:24:30;;;;;;;25.17;14.13;;;;;;;17.72;100.00;101968.38;5051225;28;20033;-64
2022/05/26 09:27:07;;;;;;;25.30;14.43;;;;;;;17.82;100.00;101963.84;5050657;28;20025;-65
2022/05/26 09:29:37;;;;;;;24.88;12.05;;;;;;;17.97;100.00;101977.13;5049128;28;20048;-62
2022/05/26 09:32:05;;;;;;;23.67;11.23;;;;;;;17.90;100.00;101983.44;5054644;28;20025;-63
2022/05/26 09:34:33;;;;;;;25.10;13.15;;;;;;;18.19;100.00;101995.66;5051184;28;20048;-64
2022/05/26 09:37:03;;;;;;;24.23;14.32;;;;;;;18.61;100.00;101982.72;5050935;28;20036;-64
2022/05/26 09:39:46;;;;;;;25.90;15.30;;;;;;;19.06;100.00;101996.53;5050813;28;20029;-65
2022/05/26 09:42:15;;;;;;;24.55;15.25;;;;;;;19.03;100.00;101996.56;5051800;28;20049;-66
2022/05/26 09:44:51;;;;;;;25.17;16.50;;;;;;;18.95;100.00;102002.00;5054995;28;20106;-64
2022/05/26 09:47:23;;;;;;;23.85;13.30;;;;;;;19.04;100.00;102001.00;5059247;27;20087;-65
2022/05/26 09:49:50;;;;;;;22.88;12.45;;;;;;;18.79;100.00;102003.97;5137637;27;20027;-64
2022/05/26 09:52:19;;;;;;;25.17;14.10;;;;;;;18.67;100.00;102000.53;5140256;27;20023;-64
2022/05/26 09:54:46;;;;;;;24.55;13.68;;;;;;;18.55;100.00;101999.78;5140208;27;20022;-62
2022/05/26 09:57:28;;;;;;;21.33;7.80;;;;;;;18.28;100.00;102007.16;5137374;27;20326;-63
2022/05/26 09:59:53;;;;;;;24.42;12.52;;;;;;;17.99;100.00;101994.06;5138008;27;20023;-62
2022/05/26 10:02:19;;;;;;;25.80;15.88;;;;;;;18.89;100.00;102007.47;5138763;27;20015;-62
2022/05/26 10:04:57;;;;;;;27.08;17.35;;;;;;;20.66;98.08;102008.31;5142469;27;20059;-61
2022/05/26 10:08:01;;;;;;;24.80;15.23;;;;;;;20.63;93.61;102003.88;5134164;27;20489;-61
2022/05/26 10:10:47;;;;;;;28.23;16.38;;;;;;;21.63;89.06;102010.81;5141373;27;20374;-62
2022/05/26 10:13:24;;;;;;;23.60;12.68;;;;;;;20.97;83.56;102023.84;5138009;27;20027;-62
2022/05/26 10:16:08;;;;;;;22.85;12.57;;;;;;;19.77;88.96;102019.66;5134592;27;20078;-61
2022/05/26 10:18:54;;;;;;;23.35;13.55;;;;;;;19.97;89.42;102023.84;5139179;27;20023;-62
2022/05/26 10:21:34;;;;;;;23.50;12.70;;;;;;;20.73;85.41;102015.38;5136740;27;20093;-61
2022/05/26 10:24:35;;;;;;;22.65;11.85;;;;;;;21.25;85.09;102025.03;5136292;27;20344;-62
2022/05/26 10:27:16;;;;;;;21.50;10.77;;;;;;;20.53;82.09;102015.72;5138090;27;20038;-70
2022/05/26 10:29:46;;;;;;;23.13;13.30;;;;;;;21.11;82.13;102019.06;5138681;27;20166;-70
2022/05/26 10:32:11;;;;;;;25.02;13.55;;;;;;;20.62;83.97;102011.97;5137918;27;20395;-72
2022/05/26 10:35:19;;;;;;;23.63;13.98;;;;;;;19.93;87.79;102022.13;5138161;27;20029;-67
2022/05/26 10:37:56;;;;;;;23.40;13.88;;;;;;;19.28;89.01;102021.25;5138940;27;20120;-71
2022/05/26 10:40:31;;;;;;;23.27;13.68;;;;;;;20.05;90.03;102021.91;5141791;27;20082;-71
2022/05/26 10:43:18;;;;;;;22.48;13.77;;;;;;;21.58;80.39;102010.88;5136507;27;20023;-71
2022/05/26 10:45:48;;;;;;;22.88;13.60;;;;;;;22.23;79.01;102015.56;5137318;27;20033;-72
2022/05/26 10:48:42;;;;;;;22.52;12.23;;;;;;;22.31;73.26;102019.88;5137146;27;20525;-71
2022/05/26 10:51:17;;;;;;;22.15;12.60;;;;;;;21.12;78.28;102009.22;5125991;27;20022;-71
2022/05/26 10:53:59;;;;;;;23.65;11.50;;;;;;;20.78;79.34;102010.81;5134830;27;20039;-71
2022/05/26 10:56:32;;;;;;;23.45;13.45;;;;;;;20.64;81.56;102024.47;5134367;27;20030;-65
2022/05/26 10:59:07;;;;;;;22.48;12.18;;;;;;;20.32;81.15;102008.94;5121179;27;20019;-63
2022/05/26 11:01:56;;;;;;;23.13;12.68;;;;;;;20.41;80.67;102014.13;5137947;27;20043;-64
2022/05/26 11:04:27;;;;;;;23.95;13.32;;;;;;;21.17;78.26;102021.66;5139717;27;20031;-64
2022/05/26 11:06:57;;;;;;;22.40;12.80;;;;;;;20.51;79.55;102030.97;5136806;27;20104;-67
2022/05/26 11:09:22;;;;;;;22.58;12.77;;;;;;;20.14;84.91;102019.09;5136119;27;20023;-65
2022/05/26 11:11:57;;;;;;;22.63;12.13;;;;;;;21.52;79.29;102021.78;5140466;27;20092;-65
2022/05/26 11:17:42;;;;;;;22.17;11.48;;;;;;;20.08;79.23;102013.84;5137585;27;20547;-64
2022/05/26 11:20:20;;;;;;;22.20;10.75;;;;;;;19.38;85.67;102019.31;5136766;27;20040;-63
2022/05/26 11:22:47;;;;;;;22.13;11.32;;;;;;;19.28;85.11;102017.66;5136966;27;20023;-64
2022/05/26 11:25:23;;;;;;;22.50;12.15;;;;;;;19.42;85.62;102015.69;5141116;27;20047;-64
2022/05/26 11:28:07;;;;;;;22.98;12.40;;;;;;;19.61;85.37;102021.66;5138491;27;20026;-63
2022/05/26 11:36:55;;;;;;;22.33;12.05;;;;;;;19.25;85.35;102020.41;5136480;27;20042;-63
2022/05/26 11:39:29;;;;;;;24.17;13.75;;;;;;;18.97;89.27;102002.00;5136187;27;20068;-64
2022/05/26 11:42:38;;;;;;;24.65;13.95;;;;;;;18.90;86.79;101997.63;5135652;27;20025;-64
2022/05/26 11:45:13;;;;;;;23.30;12.27;;;;;;;18.50;88.39;102014.13;5140191;27;20023;-63
2022/05/26 11:48:26;;;;;;;25.77;14.30;;;;;;;18.19;90.50;102009.94;5141561;27;20110;-64
2022/05/26 11:51:39;;;;;;;25.52;15.35;;;;;;;18.17;89.97;101998.34;5136878;27;20108;-65
2022/05/26 11:54:07;;;;;;;24.48;14.50;;;;;;;19.13;88.29;101998.25;5141565;27;20107;-67
2022/05/26 11:56:32;;;;;;;24.40;14.38;;;;;;;20.50;80.76;101997.88;5138740;27;20490;-63
2022/05/26 11:59:31;;;;;;;25.20;14.32;;;;;;;22.13;77.38;101994.31;5134503;27;20039;-64
2022/05/26 12:01:59;;;;;;;23.17;13.13;;;;;;;22.49;69.43;102000.56;5134562;27;20473;-63